Katsuragimaru — JK5335 — position and weather

sailwx.info

Track history (hours):
 
Tides and Currents Weather Stations Pressure Air Temp Water Temp Dewpoint Dewpoint Depression Visibility Wind Speed Wind Dir Waves Ship Positions

Katsuragimaru

Last reported at 2017-Nov-17 05:00 UTC. Time now 2017-Nov-21 17:27 UTC.
Position N 34°37' E 135°01'.

Length 76 m; draft 4.5 m.

Type: Cargo ship. MMSI: 431400311.

Date/timePositionNaut miles runAvg speedWind from/ knotsBaromVisibWave heightAir tempDewpointWater temp
2017-Nov-17 05:00N 34°37' E 135°01'5 9.5
2017-Nov-17 04:30N 34°36' E 135°07'611.6
2017-Nov-17 04:00N 34°36' E 135°14'612.1
2017-Nov-17 03:30N 34°38' E 135°21'5 9.9
2017-Nov-17 02:59N 34°40' E 135°27'0 0.6
2017-Nov-17 02:14N 34°40' E 135°27'0 0.0
2017-Nov-17 01:48N 34°40' E 135°27'0 0.0
2017-Nov-17 01:30N 34°40' E 135°27'0 0.0
2017-Nov-17 00:57N 34°40' E 135°27'0 0.0
2017-Nov-17 00:30N 34°40' E 135°27'0 0.0
2017-Nov-17 00:00N 34°40' E 135°27'0 0.0
2017-Nov-16 23:28N 34°40' E 135°27'0 0.4
2017-Nov-16 23:00N 34°40' E 135°27'3 6.9
2017-Nov-16 22:30N 34°38' E 135°23'2 3.3
2017-Nov-16 22:00N 34°37' E 135°22'0 0.0
2017-Nov-16 21:30N 34°37' E 135°22'0 0.0
2017-Nov-16 21:00N 34°37' E 135°22'0 0.0
2017-Nov-16 20:29N 34°37' E 135°22'0 0.0
2017-Nov-16 20:00N 34°37' E 135°22'0 0.0
2017-Nov-16 19:30N 34°37' E 135°22'0 0.0
2017-Nov-16 19:00N 34°37' E 135°22'0 0.0
2017-Nov-16 18:30N 34°37' E 135°22'0 0.1
2017-Nov-16 18:00N 34°37' E 135°22'4 8.2
2017-Nov-16 17:30N 34°36' E 135°17'611.3
2017-Nov-16 17:00N 34°35' E 135°10'612.4
2017-Nov-16 16:30N 34°36' E 135°03'  
2017-Nov-13 02:00N 34°38' E 135°22'2 3.9
2017-Nov-13 01:30N 34°38' E 135°25'0 0.0
2017-Nov-13 01:00N 34°38' E 135°25'0 0.0
2017-Nov-13 00:30N 34°38' E 135°25'0 0.0
2017-Nov-13 00:00N 34°38' E 135°25'0 0.0
2017-Nov-12 23:30N 34°38' E 135°25'0 0.0
2017-Nov-12 22:58N 34°38' E 135°25'1 2.8
2017-Nov-12 22:30N 34°38' E 135°23'0 0.6
2017-Nov-12 22:00N 34°38' E 135°23'0 0.0
2017-Nov-12 21:30N 34°38' E 135°23'0 0.0
2017-Nov-12 20:56N 34°38' E 135°23'0 0.0
2017-Nov-12 20:30N 34°38' E 135°23'0 0.0
2017-Nov-12 20:00N 34°38' E 135°23'0 0.0
2017-Nov-12 19:30N 34°38' E 135°23'0 0.0
2017-Nov-12 19:00N 34°38' E 135°23'0 0.0
2017-Nov-12 18:30N 34°38' E 135°23'0 0.0
2017-Nov-12 18:00N 34°38' E 135°23'0 0.0
2017-Nov-12 17:29N 34°38' E 135°23'0 0.1
2017-Nov-12 17:00N 34°38' E 135°23'3 6.6
2017-Nov-12 16:30N 34°36' E 135°19'510.5
2017-Nov-12 16:00N 34°35' E 135°13'511.1
2017-Nov-12 15:30N 34°35' E 135°06'612.2
2017-Nov-12 14:59N 34°37' E 134°59'  
Track history (hours):
 
Tides and Currents Weather Stations Pressure Air Temp Water Temp Dewpoint Dewpoint Depression Visibility Wind Speed Wind Dir Waves Ship Positions

Katsuragimaru

Last reported at 2017-Nov-17 05:00 UTC. Time now 2017-Nov-21 17:27 UTC.
Position N 34°37' E 135°01'.

Length 76 m; draft 4.5 m.

Type: Cargo ship. MMSI: 431400311.

Date/timePositionNaut miles runAvg speedWind from/ knotsBaromVisibWave heightAir tempDewpointWater temp
2017-Nov-17 05:00N 34°37' E 135°01'5 9.5
2017-Nov-17 04:30N 34°36' E 135°07'611.6
2017-Nov-17 04:00N 34°36' E 135°14'612.1
2017-Nov-17 03:30N 34°38' E 135°21'5 9.9
2017-Nov-17 02:59N 34°40' E 135°27'0 0.6
2017-Nov-17 02:14N 34°40' E 135°27'0 0.0
2017-Nov-17 01:48N 34°40' E 135°27'0 0.0
2017-Nov-17 01:30N 34°40' E 135°27'0 0.0
2017-Nov-17 00:57N 34°40' E 135°27'0 0.0
2017-Nov-17 00:30N 34°40' E 135°27'0 0.0
2017-Nov-17 00:00N 34°40' E 135°27'0 0.0
2017-Nov-16 23:28N 34°40' E 135°27'0 0.4
2017-Nov-16 23:00N 34°40' E 135°27'3 6.9
2017-Nov-16 22:30N 34°38' E 135°23'2 3.3
2017-Nov-16 22:00N 34°37' E 135°22'0 0.0
2017-Nov-16 21:30N 34°37' E 135°22'0 0.0
2017-Nov-16 21:00N 34°37' E 135°22'0 0.0
2017-Nov-16 20:29N 34°37' E 135°22'0 0.0
2017-Nov-16 20:00N 34°37' E 135°22'0 0.0
2017-Nov-16 19:30N 34°37' E 135°22'0 0.0
2017-Nov-16 19:00N 34°37' E 135°22'0 0.0
2017-Nov-16 18:30N 34°37' E 135°22'0 0.1
2017-Nov-16 18:00N 34°37' E 135°22'4 8.2
2017-Nov-16 17:30N 34°36' E 135°17'611.3
2017-Nov-16 17:00N 34°35' E 135°10'612.4
2017-Nov-16 16:30N 34°36' E 135°03'  
2017-Nov-13 02:00N 34°38' E 135°22'2 3.9
2017-Nov-13 01:30N 34°38' E 135°25'0 0.0
2017-Nov-13 01:00N 34°38' E 135°25'0 0.0
2017-Nov-13 00:30N 34°38' E 135°25'0 0.0
2017-Nov-13 00:00N 34°38' E 135°25'0 0.0
2017-Nov-12 23:30N 34°38' E 135°25'0 0.0
2017-Nov-12 22:58N 34°38' E 135°25'1 2.8
2017-Nov-12 22:30N 34°38' E 135°23'0 0.6
2017-Nov-12 22:00N 34°38' E 135°23'0 0.0
2017-Nov-12 21:30N 34°38' E 135°23'0 0.0
2017-Nov-12 20:56N 34°38' E 135°23'0 0.0
2017-Nov-12 20:30N 34°38' E 135°23'0 0.0
2017-Nov-12 20:00N 34°38' E 135°23'0 0.0
2017-Nov-12 19:30N 34°38' E 135°23'0 0.0
2017-Nov-12 19:00N 34°38' E 135°23'0 0.0
2017-Nov-12 18:30N 34°38' E 135°23'0 0.0
2017-Nov-12 18:00N 34°38' E 135°23'0 0.0
2017-Nov-12 17:29N 34°38' E 135°23'0 0.1
2017-Nov-12 17:00N 34°38' E 135°23'3 6.6
2017-Nov-12 16:30N 34°36' E 135°19'510.5
2017-Nov-12 16:00N 34°35' E 135°13'511.1
2017-Nov-12 15:30N 34°35' E 135°06'612.2
2017-Nov-12 14:59N 34°37' E 134°59'  

Dump ship's entire track history